San Diego, CA (92174)

10:00 AM PDT on September 02, 2014 (GMT -0700)
RidgeView | Change Station
CLOSE
Current Station
Personal Weather Station
Location: San Diego, CA
Elevation: 272 ft
Nearby Weather Stations

Elev 272 ft 32.73 °N, 117.09 °W | Updated 0 second ago

Partly Cloudy
Partly Cloudy
80.2 °F
Feels Like 83 °F
N
0.0
Wind Variable Wind from NW
Gusts 2.0 mph

Today
High -- | Low -- °F
--% Chance of Precip.
Yesterday
High -- | Low -- °F
Precip. -- in
6:23 AM 7:11 PM
First Quarter, 53% visible
Pressure 29.87 in
Visibility 10.0 miles
Clouds Few 2000 ft
Heat Index 83 °F
Dew Point 68 °F
Humidity 66%
Rainfall 0.00 in
Snow Depth Not available.
UV 5 out of 12
Pollen 7.80 out of 12
Ozone Good
PM2.5 Moderate
Flu Activity Not available.
METAR KSAN 021651Z 00000KT 10SM FEW020 23/16 A2986 RMK AO2 SLP113 T02330156

More Conditions Fewer Conditions

Pressure 29.87 in
Visibility 10.0 miles
Clouds Few 2000 ft
Heat Index 83 °F
Dew Point 68 °F
Humidity 66%
Rainfall 0.00 in
Snow Depth Not available.
UV 5 out of 12
Pollen 7.80 out of 12
Ozone Good
PM2.5 Moderate
Flu Activity Not available.
METAR KSAN 021651Z 00000KT 10SM FEW020 23/16 A2986 RMK AO2 SLP113 T02330156

More Conditions Fewer Conditions

10-Day Weather Forecast

Almanac

Astronomy

Sep. 02, 2014 Rise Set
Actual Time 6:23 AM PDT 7:11 PM PDT
Civil Twilight 5:58 AM PDT 7:36 PM PDT
Nautical Twilight 5:29 AM PDT 8:06 PM PDT
Astronomical Twilight 4:58 AM PDT 8:36 PM PDT
Moon 1:49 PM PDT No Moon Set
Length of Visible Light 13h 37m
Length of Day
12h 47m
Tomorrow will be 1m 56s shorter.
First Quarter, 53% of the Moon is Illuminated
Today
First Quarter
Sep 8
Full
Sep 15
Last Quarter
Sep 24
New
Oct 1
First Quarter

Today's Extremes

State Highs State Lows

Community

WunderPhotos

Upload Photos

1,749,720 photos uploaded!

Nearby

Air Quality

  Air Quality AQ Index Pollutant
Yesterday Good
PM2.5
Yesterday Good
OZONE
Current Moderate
PM2.5
Current Good
OZONE
Tuesday Good
PM2.5

Snow Depth

Station Depth Elevation
Summit Meadow 1 in 9122 ft
Blue Lakes 0 in 8000 ft
Forestdale Creek 0 in 8029 ft
Hagan's Meadow 0 in 8000 ft
CSS Lab 2 in 6900 ft

Earthquake Activity

City Distance Mag. Time & Date
Holtville, California 96 miles 2.5 5:43 PM PDT
2014-09-01
Holtville, California 97 miles 2.5 5:26 PM PDT
2014-09-01
Minimum magnitude displayed is 2.5.

Coastal Water Temperatures

Place Temperature
La Jolla, CA 71.1 °F
San Diego, CA 75.0 °F

Nearby Weather Stations